Alva, Florida
Current Conditions -  °F | °C
As of 4:53 PM on Sunday 23 Nov 2014 (Local Time) from KRSW Reporting Station
Overcast Overcast  
Wind Chill: 28°   Ceiling: 5500
Heat Index: 30°   Visibility: 10mi
Dew Point: 22°   Wind: 10mph
Humidity: 69%   Direction: 200°SSW
Pressure: 29.9"   Gusts: NA
Location:  26.72°N, 81.61°W
Report Text: KRSW 232153Z 20009KT 10SM OVC055 28/22 A2990 RMK AO2 SLP123 T02780217
Loading
Personal Weather Stations






























Interactive Weather Map New forecast layout! Learn more

10-Day Weather Forecast

Advertisements
Track Severe Weather on mobile